sensor_id;sensor_type;location;lat;lon;timestamp;P1;durP1;ratioP1;P2;durP2;ratioP2
22660;SDS011;11497;52.222;21.246;2023-12-04T00:01:53;50.22;;;25.65;;
22660;SDS011;11497;52.222;21.246;2023-12-04T00:04:21;45.72;;;25.02;;
22660;SDS011;11497;52.222;21.246;2023-12-04T00:06:49;47.35;;;24.50;;
22660;SDS011;11497;52.222;21.246;2023-12-04T00:09:17;53.03;;;26.73;;
22660;SDS011;11497;52.222;21.246;2023-12-04T00:11:45;47.40;;;24.67;;
22660;SDS011;11497;52.222;21.246;2023-12-04T00:14:13;46.83;;;25.15;;
22660;SDS011;11497;52.222;21.246;2023-12-04T00:16:41;46.08;;;25.40;;
22660;SDS011;11497;52.222;21.246;2023-12-04T00:19:09;48.95;;;25.75;;
22660;SDS011;11497;52.222;21.246;2023-12-04T00:21:37;51.55;;;25.40;;
22660;SDS011;11497;52.222;21.246;2023-12-04T00:24:05;46.60;;;24.08;;
22660;SDS011;11497;52.222;21.246;2023-12-04T00:26:33;47.67;;;25.38;;
22660;SDS011;11497;52.222;21.246;2023-12-04T00:29:01;45.88;;;24.60;;
22660;SDS011;11497;52.222;21.246;2023-12-04T00:31:29;46.90;;;24.73;;
22660;SDS011;11497;52.222;21.246;2023-12-04T00:33:58;48.17;;;25.13;;
22660;SDS011;11497;52.222;21.246;2023-12-04T00:36:27;48.10;;;25.10;;
22660;SDS011;11497;52.222;21.246;2023-12-04T00:38:55;49.70;;;24.58;;
22660;SDS011;11497;52.222;21.246;2023-12-04T00:41:23;47.28;;;24.75;;
22660;SDS011;11497;52.222;21.246;2023-12-04T00:43:51;46.58;;;22.85;;
22660;SDS011;11497;52.222;21.246;2023-12-04T00:46:19;45.65;;;23.48;;
22660;SDS011;11497;52.222;21.246;2023-12-04T00:48:47;48.13;;;23.38;;
22660;SDS011;11497;52.222;21.246;2023-12-04T00:51:15;44.03;;;23.95;;
22660;SDS011;11497;52.222;21.246;2023-12-04T00:53:43;45.17;;;22.73;;
22660;SDS011;11497;52.222;21.246;2023-12-04T00:56:10;46.50;;;24.50;;
22660;SDS011;11497;52.222;21.246;2023-12-04T00:58:38;47.03;;;23.83;;
22660;SDS011;11497;52.222;21.246;2023-12-04T01:01:06;45.80;;;24.27;;
22660;SDS011;11497;52.222;21.246;2023-12-04T01:03:34;41.65;;;22.52;;
22660;SDS011;11497;52.222;21.246;2023-12-04T01:06:02;45.47;;;22.48;;
22660;SDS011;11497;52.222;21.246;2023-12-04T01:08:30;42.65;;;22.98;;
22660;SDS011;11497;52.222;21.246;2023-12-04T01:10:58;43.35;;;23.55;;
22660;SDS011;11497;52.222;21.246;2023-12-04T01:13:26;43.72;;;22.95;;
22660;SDS011;11497;52.222;21.246;2023-12-04T01:15:54;42.10;;;23.13;;
22660;SDS011;11497;52.222;21.246;2023-12-04T01:18:23;44.63;;;23.15;;
22660;SDS011;11497;52.222;21.246;2023-12-04T01:20:51;43.88;;;23.15;;
22660;SDS011;11497;52.222;21.246;2023-12-04T01:23:19;46.10;;;23.45;;
22660;SDS011;11497;52.222;21.246;2023-12-04T01:25:46;39.88;;;22.42;;
22660;SDS011;11497;52.222;21.246;2023-12-04T01:28:14;47.42;;;23.65;;
22660;SDS011;11497;52.222;21.246;2023-12-04T01:30:42;46.33;;;23.08;;
22660;SDS011;11497;52.222;21.246;2023-12-04T01:33:10;47.47;;;24.38;;
22660;SDS011;11497;52.222;21.246;2023-12-04T01:35:38;45.22;;;24.25;;
22660;SDS011;11497;52.222;21.246;2023-12-04T01:38:06;46.72;;;24.13;;
22660;SDS011;11497;52.222;21.246;2023-12-04T01:40:35;45.88;;;24.52;;
22660;SDS011;11497;52.222;21.246;2023-12-04T01:43:03;42.97;;;22.88;;
22660;SDS011;11497;52.222;21.246;2023-12-04T01:45:32;46.47;;;24.10;;
22660;SDS011;11497;52.222;21.246;2023-12-04T01:48:00;46.35;;;24.73;;
22660;SDS011;11497;52.222;21.246;2023-12-04T01:50:29;45.78;;;23.73;;
22660;SDS011;11497;52.222;21.246;2023-12-04T01:52:57;49.35;;;24.90;;
22660;SDS011;11497;52.222;21.246;2023-12-04T01:55:25;54.15;;;28.58;;
22660;SDS011;11497;52.222;21.246;2023-12-04T01:57:53;50.80;;;26.10;;
22660;SDS011;11497;52.222;21.246;2023-12-04T02:00:22;98.80;;;39.42;;
22660;SDS011;11497;52.222;21.246;2023-12-04T02:02:51;111.07;;;43.40;;
22660;SDS011;11497;52.222;21.246;2023-12-04T02:05:19;65.40;;;31.05;;
22660;SDS011;11497;52.222;21.246;2023-12-04T02:07:49;42.95;;;24.10;;
22660;SDS011;11497;52.222;21.246;2023-12-04T02:10:18;42.15;;;23.25;;
22660;SDS011;11497;52.222;21.246;2023-12-04T02:12:46;43.53;;;22.67;;
22660;SDS011;11497;52.222;21.246;2023-12-04T02:15:14;42.05;;;22.10;;
22660;SDS011;11497;52.222;21.246;2023-12-04T02:17:43;48.30;;;24.60;;
22660;SDS011;11497;52.222;21.246;2023-12-04T02:20:14;39.03;;;20.70;;
22660;SDS011;11497;52.222;21.246;2023-12-04T02:22:44;35.60;;;20.02;;
22660;SDS011;11497;52.222;21.246;2023-12-04T02:25:11;34.80;;;18.98;;
22660;SDS011;11497;52.222;21.246;2023-12-04T02:28:01;35.33;;;20.05;;
22660;SDS011;11497;52.222;21.246;2023-12-04T02:30:33;32.88;;;17.98;;
22660;SDS011;11497;52.222;21.246;2023-12-04T02:33:04;32.45;;;17.52;;
22660;SDS011;11497;52.222;21.246;2023-12-04T02:35:36;31.67;;;17.33;;
22660;SDS011;11497;52.222;21.246;2023-12-04T02:38:06;30.10;;;18.40;;
22660;SDS011;11497;52.222;21.246;2023-12-04T02:40:34;33.08;;;18.02;;
22660;SDS011;11497;52.222;21.246;2023-12-04T02:43:02;31.02;;;17.55;;
22660;SDS011;11497;52.222;21.246;2023-12-04T02:45:30;34.22;;;19.33;;
22660;SDS011;11497;52.222;21.246;2023-12-04T02:47:58;37.55;;;20.23;;
22660;SDS011;11497;52.222;21.246;2023-12-04T02:50:26;35.03;;;18.52;;
22660;SDS011;11497;52.222;21.246;2023-12-04T02:52:55;32.97;;;18.00;;
22660;SDS011;11497;52.222;21.246;2023-12-04T02:55:22;31.98;;;17.80;;
22660;SDS011;11497;52.222;21.246;2023-12-04T02:57:51;33.10;;;18.27;;
22660;SDS011;11497;52.222;21.246;2023-12-04T03:00:19;31.10;;;18.25;;
22660;SDS011;11497;52.222;21.246;2023-12-04T03:02:47;29.67;;;16.80;;
22660;SDS011;11497;52.222;21.246;2023-12-04T03:05:14;29.60;;;17.10;;
22660;SDS011;11497;52.222;21.246;2023-12-04T03:07:42;34.83;;;18.25;;
22660;SDS011;11497;52.222;21.246;2023-12-04T03:10:10;30.38;;;17.17;;
22660;SDS011;11497;52.222;21.246;2023-12-04T03:12:38;30.20;;;17.30;;
22660;SDS011;11497;52.222;21.246;2023-12-04T03:15:06;31.73;;;16.80;;
22660;SDS011;11497;52.222;21.246;2023-12-04T03:17:35;29.75;;;17.23;;
22660;SDS011;11497;52.222;21.246;2023-12-04T03:20:03;29.70;;;16.52;;
22660;SDS011;11497;52.222;21.246;2023-12-04T03:22:33;27.27;;;16.23;;
22660;SDS011;11497;52.222;21.246;2023-12-04T03:25:03;29.65;;;16.13;;
22660;SDS011;11497;52.222;21.246;2023-12-04T03:27:31;28.05;;;16.25;;
22660;SDS011;11497;52.222;21.246;2023-12-04T03:29:59;28.95;;;15.00;;
22660;SDS011;11497;52.222;21.246;2023-12-04T03:32:28;30.67;;;16.05;;
22660;SDS011;11497;52.222;21.246;2023-12-04T03:34:55;26.92;;;14.35;;
22660;SDS011;11497;52.222;21.246;2023-12-04T03:37:24;29.25;;;15.23;;
22660;SDS011;11497;52.222;21.246;2023-12-04T03:39:51;26.60;;;14.75;;
22660;SDS011;11497;52.222;21.246;2023-12-04T03:42:19;30.02;;;15.27;;
22660;SDS011;11497;52.222;21.246;2023-12-04T03:44:47;26.67;;;14.45;;
22660;SDS011;11497;52.222;21.246;2023-12-04T03:47:15;27.10;;;14.82;;
22660;SDS011;11497;52.222;21.246;2023-12-04T03:49:43;29.83;;;16.25;;
22660;SDS011;11497;52.222;21.246;2023-12-04T03:52:11;25.50;;;15.38;;
22660;SDS011;11497;52.222;21.246;2023-12-04T03:54:39;25.95;;;14.93;;
22660;SDS011;11497;52.222;21.246;2023-12-04T03:57:09;26.98;;;15.10;;
22660;SDS011;11497;52.222;21.246;2023-12-04T03:59:37;27.90;;;14.60;;
22660;SDS011;11497;52.222;21.246;2023-12-04T04:02:05;28.95;;;15.65;;
22660;SDS011;11497;52.222;21.246;2023-12-04T04:04:33;28.27;;;16.15;;
22660;SDS011;11497;52.222;21.246;2023-12-04T04:07:02;24.70;;;14.63;;
22660;SDS011;11497;52.222;21.246;2023-12-04T04:09:30;31.05;;;16.38;;
22660;SDS011;11497;52.222;21.246;2023-12-04T04:11:58;30.17;;;15.95;;
22660;SDS011;11497;52.222;21.246;2023-12-04T04:14:26;28.33;;;15.57;;
22660;SDS011;11497;52.222;21.246;2023-12-04T04:16:54;26.42;;;14.85;;
22660;SDS011;11497;52.222;21.246;2023-12-04T04:19:22;28.80;;;15.77;;
22660;SDS011;11497;52.222;21.246;2023-12-04T04:21:50;31.42;;;17.27;;
22660;SDS011;11497;52.222;21.246;2023-12-04T04:24:18;31.08;;;16.13;;
22660;SDS011;11497;52.222;21.246;2023-12-04T04:26:46;29.63;;;16.35;;
22660;SDS011;11497;52.222;21.246;2023-12-04T04:29:13;28.75;;;15.25;;
22660;SDS011;11497;52.222;21.246;2023-12-04T04:31:41;31.58;;;16.80;;
22660;SDS011;11497;52.222;21.246;2023-12-04T04:34:09;31.95;;;16.20;;
22660;SDS011;11497;52.222;21.246;2023-12-04T04:36:37;29.73;;;16.35;;
22660;SDS011;11497;52.222;21.246;2023-12-04T04:39:05;29.52;;;16.27;;
22660;SDS011;11497;52.222;21.246;2023-12-04T04:41:33;31.73;;;17.00;;
22660;SDS011;11497;52.222;21.246;2023-12-04T04:44:01;31.05;;;16.65;;
22660;SDS011;11497;52.222;21.246;2023-12-04T04:46:29;30.48;;;16.33;;
22660;SDS011;11497;52.222;21.246;2023-12-04T04:48:57;29.65;;;17.77;;
22660;SDS011;11497;52.222;21.246;2023-12-04T04:51:27;31.85;;;17.77;;
22660;SDS011;11497;52.222;21.246;2023-12-04T04:53:56;33.88;;;18.00;;
22660;SDS011;11497;52.222;21.246;2023-12-04T04:56:24;33.28;;;17.35;;
22660;SDS011;11497;52.222;21.246;2023-12-04T04:58:52;35.70;;;17.90;;
22660;SDS011;11497;52.222;21.246;2023-12-04T05:01:20;31.60;;;18.00;;
22660;SDS011;11497;52.222;21.246;2023-12-04T05:03:48;35.42;;;18.98;;
22660;SDS011;11497;52.222;21.246;2023-12-04T05:06:16;34.08;;;18.55;;
22660;SDS011;11497;52.222;21.246;2023-12-04T05:08:44;33.13;;;18.30;;
22660;SDS011;11497;52.222;21.246;2023-12-04T05:11:14;41.38;;;19.73;;
22660;SDS011;11497;52.222;21.246;2023-12-04T05:13:42;32.30;;;17.77;;
22660;SDS011;11497;52.222;21.246;2023-12-04T05:16:11;34.90;;;17.80;;
22660;SDS011;11497;52.222;21.246;2023-12-04T05:18:39;34.83;;;18.23;;
22660;SDS011;11497;52.222;21.246;2023-12-04T05:21:08;39.00;;;18.90;;
22660;SDS011;11497;52.222;21.246;2023-12-04T05:23:36;31.35;;;17.38;;
22660;SDS011;11497;52.222;21.246;2023-12-04T05:26:05;33.45;;;18.83;;
22660;SDS011;11497;52.222;21.246;2023-12-04T05:28:34;36.53;;;17.02;;
22660;SDS011;11497;52.222;21.246;2023-12-04T05:31:02;31.25;;;17.65;;
22660;SDS011;11497;52.222;21.246;2023-12-04T05:33:31;34.25;;;18.77;;
22660;SDS011;11497;52.222;21.246;2023-12-04T05:36:00;33.92;;;18.95;;
22660;SDS011;11497;52.222;21.246;2023-12-04T05:38:27;32.38;;;17.85;;
22660;SDS011;11497;52.222;21.246;2023-12-04T05:40:55;36.13;;;19.83;;
22660;SDS011;11497;52.222;21.246;2023-12-04T05:43:23;34.28;;;19.45;;
22660;SDS011;11497;52.222;21.246;2023-12-04T05:45:51;37.47;;;19.08;;
22660;SDS011;11497;52.222;21.246;2023-12-04T05:48:19;37.00;;;19.00;;
22660;SDS011;11497;52.222;21.246;2023-12-04T05:50:47;33.08;;;18.35;;
22660;SDS011;11497;52.222;21.246;2023-12-04T05:53:16;37.80;;;20.10;;
22660;SDS011;11497;52.222;21.246;2023-12-04T05:55:44;33.17;;;18.55;;
22660;SDS011;11497;52.222;21.246;2023-12-04T05:58:12;36.80;;;19.52;;
22660;SDS011;11497;52.222;21.246;2023-12-04T06:00:41;38.70;;;20.73;;
22660;SDS011;11497;52.222;21.246;2023-12-04T06:03:09;32.67;;;18.75;;
22660;SDS011;11497;52.222;21.246;2023-12-04T06:05:37;37.97;;;21.50;;
22660;SDS011;11497;52.222;21.246;2023-12-04T06:08:05;33.35;;;18.08;;
22660;SDS011;11497;52.222;21.246;2023-12-04T06:10:33;38.42;;;20.40;;
22660;SDS011;11497;52.222;21.246;2023-12-04T06:13:01;35.38;;;19.38;;
22660;SDS011;11497;52.222;21.246;2023-12-04T06:15:30;38.20;;;19.25;;
22660;SDS011;11497;52.222;21.246;2023-12-04T06:17:57;38.88;;;20.48;;
22660;SDS011;11497;52.222;21.246;2023-12-04T06:20:26;37.97;;;20.15;;
22660;SDS011;11497;52.222;21.246;2023-12-04T06:22:53;40.83;;;18.75;;
22660;SDS011;11497;52.222;21.246;2023-12-04T06:25:22;35.58;;;18.52;;
22660;SDS011;11497;52.222;21.246;2023-12-04T06:27:50;34.55;;;19.50;;
22660;SDS011;11497;52.222;21.246;2023-12-04T06:30:19;39.75;;;20.00;;
22660;SDS011;11497;52.222;21.246;2023-12-04T06:32:47;38.28;;;20.85;;
22660;SDS011;11497;52.222;21.246;2023-12-04T06:35:15;39.63;;;20.13;;
22660;SDS011;11497;52.222;21.246;2023-12-04T06:37:47;38.95;;;19.63;;
22660;SDS011;11497;52.222;21.246;2023-12-04T06:40:16;36.65;;;19.88;;
22660;SDS011;11497;52.222;21.246;2023-12-04T06:42:45;59.30;;;27.60;;
22660;SDS011;11497;52.222;21.246;2023-12-04T06:45:13;66.20;;;29.45;;
22660;SDS011;11497;52.222;21.246;2023-12-04T06:47:43;47.03;;;23.55;;
22660;SDS011;11497;52.222;21.246;2023-12-04T06:50:12;40.15;;;20.02;;
22660;SDS011;11497;52.222;21.246;2023-12-04T06:52:40;36.25;;;19.98;;
22660;SDS011;11497;52.222;21.246;2023-12-04T06:55:08;42.13;;;21.15;;
22660;SDS011;11497;52.222;21.246;2023-12-04T06:57:36;39.53;;;20.58;;
22660;SDS011;11497;52.222;21.246;2023-12-04T07:00:04;61.40;;;27.02;;
22660;SDS011;11497;52.222;21.246;2023-12-04T07:02:48;76.80;;;32.35;;
22660;SDS011;11497;52.222;21.246;2023-12-04T07:05:18;71.60;;;30.80;;
22660;SDS011;11497;52.222;21.246;2023-12-04T07:07:48;70.95;;;31.23;;
22660;SDS011;11497;52.222;21.246;2023-12-04T07:10:16;51.35;;;24.00;;
22660;SDS011;11497;52.222;21.246;2023-12-04T07:12:44;44.15;;;21.25;;
22660;SDS011;11497;52.222;21.246;2023-12-04T07:15:13;38.50;;;21.23;;
22660;SDS011;11497;52.222;21.246;2023-12-04T07:17:41;38.42;;;21.17;;
22660;SDS011;11497;52.222;21.246;2023-12-04T07:20:09;39.58;;;21.33;;
22660;SDS011;11497;52.222;21.246;2023-12-04T07:22:38;43.97;;;21.38;;
22660;SDS011;11497;52.222;21.246;2023-12-04T07:25:07;39.38;;;20.65;;
22660;SDS011;11497;52.222;21.246;2023-12-04T07:27:35;41.42;;;21.65;;
22660;SDS011;11497;52.222;21.246;2023-12-04T07:30:06;39.38;;;20.67;;
22660;SDS011;11497;52.222;21.246;2023-12-04T07:32:34;41.38;;;20.15;;
22660;SDS011;11497;52.222;21.246;2023-12-04T07:35:03;40.45;;;21.17;;
22660;SDS011;11497;52.222;21.246;2023-12-04T07:37:31;40.70;;;21.63;;
22660;SDS011;11497;52.222;21.246;2023-12-04T07:39:59;39.78;;;21.02;;
22660;SDS011;11497;52.222;21.246;2023-12-04T07:42:27;37.47;;;19.70;;
22660;SDS011;11497;52.222;21.246;2023-12-04T07:44:56;40.58;;;21.50;;
22660;SDS011;11497;52.222;21.246;2023-12-04T07:47:24;40.03;;;20.85;;
22660;SDS011;11497;52.222;21.246;2023-12-04T07:49:52;43.03;;;20.65;;
22660;SDS011;11497;52.222;21.246;2023-12-04T07:52:20;37.45;;;19.98;;
22660;SDS011;11497;52.222;21.246;2023-12-04T07:54:48;44.55;;;21.75;;
22660;SDS011;11497;52.222;21.246;2023-12-04T07:57:16;43.88;;;22.05;;
22660;SDS011;11497;52.222;21.246;2023-12-04T07:59:45;40.97;;;21.10;;
22660;SDS011;11497;52.222;21.246;2023-12-04T08:02:17;42.10;;;22.38;;
22660;SDS011;11497;52.222;21.246;2023-12-04T08:04:45;42.08;;;22.25;;
22660;SDS011;11497;52.222;21.246;2023-12-04T08:07:14;45.42;;;21.95;;
22660;SDS011;11497;52.222;21.246;2023-12-04T08:09:42;41.83;;;21.45;;
22660;SDS011;11497;52.222;21.246;2023-12-04T08:12:10;44.92;;;21.92;;
22660;SDS011;11497;52.222;21.246;2023-12-04T08:14:38;47.47;;;22.52;;
22660;SDS011;11497;52.222;21.246;2023-12-04T08:17:06;45.72;;;21.95;;
22660;SDS011;11497;52.222;21.246;2023-12-04T08:19:34;45.58;;;23.10;;
22660;SDS011;11497;52.222;21.246;2023-12-04T08:22:04;41.35;;;21.90;;
22660;SDS011;11497;52.222;21.246;2023-12-04T08:24:32;42.05;;;20.88;;
22660;SDS011;11497;52.222;21.246;2023-12-04T08:27:00;42.33;;;21.65;;
22660;SDS011;11497;52.222;21.246;2023-12-04T08:29:29;45.60;;;23.13;;
22660;SDS011;11497;52.222;21.246;2023-12-04T08:31:56;44.42;;;22.13;;
22660;SDS011;11497;52.222;21.246;2023-12-04T08:34:24;42.03;;;22.70;;
22660;SDS011;11497;52.222;21.246;2023-12-04T08:36:52;46.65;;;22.42;;
22660;SDS011;11497;52.222;21.246;2023-12-04T08:39:20;48.38;;;23.75;;
22660;SDS011;11497;52.222;21.246;2023-12-04T08:41:49;43.75;;;22.30;;
22660;SDS011;11497;52.222;21.246;2023-12-04T08:44:29;44.38;;;23.35;;
22660;SDS011;11497;52.222;21.246;2023-12-04T08:46:56;46.00;;;23.27;;
22660;SDS011;11497;52.222;21.246;2023-12-04T08:49:25;48.97;;;23.10;;
22660;SDS011;11497;52.222;21.246;2023-12-04T08:52:08;50.42;;;23.63;;
22660;SDS011;11497;52.222;21.246;2023-12-04T08:54:39;49.33;;;23.38;;
22660;SDS011;11497;52.222;21.246;2023-12-04T08:57:08;57.25;;;26.60;;
22660;SDS011;11497;52.222;21.246;2023-12-04T08:59:36;45.95;;;22.90;;
22660;SDS011;11497;52.222;21.246;2023-12-04T09:02:04;43.63;;;21.63;;
22660;SDS011;11497;52.222;21.246;2023-12-04T09:04:33;40.15;;;20.58;;
22660;SDS011;11497;52.222;21.246;2023-12-04T09:07:01;40.17;;;20.88;;
22660;SDS011;11497;52.222;21.246;2023-12-04T09:09:49;60.47;;;26.75;;
22660;SDS011;11497;52.222;21.246;2023-12-04T09:12:17;42.88;;;22.42;;
22660;SDS011;11497;52.222;21.246;2023-12-04T09:14:45;47.53;;;22.02;;
22660;SDS011;11497;52.222;21.246;2023-12-04T09:17:13;38.50;;;20.27;;
22660;SDS011;11497;52.222;21.246;2023-12-04T09:19:43;39.95;;;21.10;;
22660;SDS011;11497;52.222;21.246;2023-12-04T09:22:11;43.25;;;21.17;;
22660;SDS011;11497;52.222;21.246;2023-12-04T09:24:47;38.80;;;20.27;;
22660;SDS011;11497;52.222;21.246;2023-12-04T09:27:15;40.53;;;20.33;;
22660;SDS011;11497;52.222;21.246;2023-12-04T09:29:44;40.90;;;21.35;;
22660;SDS011;11497;52.222;21.246;2023-12-04T09:32:11;45.33;;;23.08;;
22660;SDS011;11497;52.222;21.246;2023-12-04T09:34:41;42.88;;;21.83;;
22660;SDS011;11497;52.222;21.246;2023-12-04T09:37:08;41.35;;;20.67;;
22660;SDS011;11497;52.222;21.246;2023-12-04T09:39:38;42.05;;;20.85;;
22660;SDS011;11497;52.222;21.246;2023-12-04T09:42:07;38.92;;;20.63;;
22660;SDS011;11497;52.222;21.246;2023-12-04T09:44:36;44.28;;;22.15;;
22660;SDS011;11497;52.222;21.246;2023-12-04T09:47:05;39.22;;;20.58;;
22660;SDS011;11497;52.222;21.246;2023-12-04T09:49:35;40.10;;;21.20;;
22660;SDS011;11497;52.222;21.246;2023-12-04T09:52:05;39.45;;;20.50;;
22660;SDS011;11497;52.222;21.246;2023-12-04T09:54:35;42.50;;;21.77;;
22660;SDS011;11497;52.222;21.246;2023-12-04T09:57:04;43.95;;;22.30;;
22660;SDS011;11497;52.222;21.246;2023-12-04T09:59:33;35.28;;;20.35;;
22660;SDS011;11497;52.222;21.246;2023-12-04T10:02:02;40.15;;;20.23;;
22660;SDS011;11497;52.222;21.246;2023-12-04T10:04:31;38.75;;;20.00;;
22660;SDS011;11497;52.222;21.246;2023-12-04T10:07:03;39.88;;;20.15;;
22660;SDS011;11497;52.222;21.246;2023-12-04T10:09:31;34.97;;;19.35;;
22660;SDS011;11497;52.222;21.246;2023-12-04T10:11:59;39.95;;;21.00;;
22660;SDS011;11497;52.222;21.246;2023-12-04T10:14:28;39.55;;;20.50;;
22660;SDS011;11497;52.222;21.246;2023-12-04T10:16:56;39.30;;;20.70;;
22660;SDS011;11497;52.222;21.246;2023-12-04T10:19:26;40.42;;;20.52;;
22660;SDS011;11497;52.222;21.246;2023-12-04T10:21:56;37.75;;;19.67;;
22660;SDS011;11497;52.222;21.246;2023-12-04T10:24:38;39.47;;;20.83;;
22660;SDS011;11497;52.222;21.246;2023-12-04T10:27:06;44.50;;;23.23;;
22660;SDS011;11497;52.222;21.246;2023-12-04T10:29:47;42.25;;;21.67;;
22660;SDS011;11497;52.222;21.246;2023-12-04T10:32:20;38.70;;;21.02;;
22660;SDS011;11497;52.222;21.246;2023-12-04T10:34:49;39.05;;;20.75;;
22660;SDS011;11497;52.222;21.246;2023-12-04T10:37:17;37.17;;;20.05;;
22660;SDS011;11497;52.222;21.246;2023-12-04T10:39:50;39.25;;;20.63;;
22660;SDS011;11497;52.222;21.246;2023-12-04T10:42:36;35.88;;;19.23;;
22660;SDS011;11497;52.222;21.246;2023-12-04T10:45:05;40.15;;;20.13;;
22660;SDS011;11497;52.222;21.246;2023-12-04T10:47:33;38.10;;;19.75;;
22660;SDS011;11497;52.222;21.246;2023-12-04T10:50:02;35.60;;;19.55;;
22660;SDS011;11497;52.222;21.246;2023-12-04T10:52:31;39.17;;;20.15;;
22660;SDS011;11497;52.222;21.246;2023-12-04T10:55:01;38.35;;;20.25;;
22660;SDS011;11497;52.222;21.246;2023-12-04T10:57:33;39.00;;;20.58;;
22660;SDS011;11497;52.222;21.246;2023-12-04T11:02:35;43.08;;;20.52;;
22660;SDS011;11497;52.222;21.246;2023-12-04T11:05:15;43.80;;;21.55;;
22660;SDS011;11497;52.222;21.246;2023-12-04T11:07:50;40.63;;;21.45;;
22660;SDS011;11497;52.222;21.246;2023-12-04T11:10:53;39.75;;;20.90;;
22660;SDS011;11497;52.222;21.246;2023-12-04T11:13:29;40.17;;;20.50;;
22660;SDS011;11497;52.222;21.246;2023-12-04T11:16:01;43.97;;;21.63;;
22660;SDS011;11497;52.222;21.246;2023-12-04T11:18:43;47.30;;;21.65;;
22660;SDS011;11497;52.222;21.246;2023-12-04T11:21:15;39.10;;;20.90;;
22660;SDS011;11497;52.222;21.246;2023-12-04T11:23:45;39.90;;;19.92;;
22660;SDS011;11497;52.222;21.246;2023-12-04T11:26:14;42.30;;;21.40;;
22660;SDS011;11497;52.222;21.246;2023-12-04T11:28:43;37.92;;;19.65;;
22660;SDS011;11497;52.222;21.246;2023-12-04T11:31:11;42.50;;;20.70;;
22660;SDS011;11497;52.222;21.246;2023-12-04T11:33:39;40.65;;;20.63;;
22660;SDS011;11497;52.222;21.246;2023-12-04T11:36:11;42.08;;;21.02;;
22660;SDS011;11497;52.222;21.246;2023-12-04T11:38:47;40.22;;;20.17;;
22660;SDS011;11497;52.222;21.246;2023-12-04T11:41:20;41.97;;;21.48;;
22660;SDS011;11497;52.222;21.246;2023-12-04T11:43:56;40.47;;;20.60;;
22660;SDS011;11497;52.222;21.246;2023-12-04T11:46:25;35.53;;;18.92;;
22660;SDS011;11497;52.222;21.246;2023-12-04T11:48:55;40.63;;;20.75;;
22660;SDS011;11497;52.222;21.246;2023-12-04T11:54:15;38.97;;;20.17;;
22660;SDS011;11497;52.222;21.246;2023-12-04T11:56:57;38.00;;;19.50;;
22660;SDS011;11497;52.222;21.246;2023-12-04T11:59:28;39.17;;;20.85;;
22660;SDS011;11497;52.222;21.246;2023-12-04T12:02:01;42.67;;;21.63;;
22660;SDS011;11497;52.222;21.246;2023-12-04T12:04:29;46.65;;;21.45;;
22660;SDS011;11497;52.222;21.246;2023-12-04T12:06:58;41.45;;;20.88;;
22660;SDS011;11497;52.222;21.246;2023-12-04T12:09:29;45.22;;;21.10;;
22660;SDS011;11497;52.222;21.246;2023-12-04T12:12:02;43.35;;;21.63;;
22660;SDS011;11497;52.222;21.246;2023-12-04T12:14:30;42.08;;;21.67;;
22660;SDS011;11497;52.222;21.246;2023-12-04T12:16:59;40.67;;;21.08;;
22660;SDS011;11497;52.222;21.246;2023-12-04T12:19:28;39.70;;;20.95;;
22660;SDS011;11497;52.222;21.246;2023-12-04T12:21:56;38.83;;;20.17;;
22660;SDS011;11497;52.222;21.246;2023-12-04T12:24:24;39.75;;;20.17;;
22660;SDS011;11497;52.222;21.246;2023-12-04T12:26:54;39.83;;;20.77;;
22660;SDS011;11497;52.222;21.246;2023-12-04T12:29:24;37.75;;;19.60;;
22660;SDS011;11497;52.222;21.246;2023-12-04T12:31:54;39.47;;;19.42;;
22660;SDS011;11497;52.222;21.246;2023-12-04T12:34:22;42.08;;;20.75;;
22660;SDS011;11497;52.222;21.246;2023-12-04T12:36:50;39.30;;;20.13;;
22660;SDS011;11497;52.222;21.246;2023-12-04T12:39:18;41.38;;;20.90;;
22660;SDS011;11497;52.222;21.246;2023-12-04T12:41:47;39.08;;;19.35;;
22660;SDS011;11497;52.222;21.246;2023-12-04T12:44:16;39.22;;;19.10;;
22660;SDS011;11497;52.222;21.246;2023-12-04T12:46:48;38.17;;;19.25;;
22660;SDS011;11497;52.222;21.246;2023-12-04T12:49:18;42.92;;;20.38;;
22660;SDS011;11497;52.222;21.246;2023-12-04T12:52:02;38.40;;;18.75;;
22660;SDS011;11497;52.222;21.246;2023-12-04T12:54:39;38.15;;;19.30;;
22660;SDS011;11497;52.222;21.246;2023-12-04T12:57:08;40.67;;;19.10;;
22660;SDS011;11497;52.222;21.246;2023-12-04T12:59:40;41.10;;;19.98;;
22660;SDS011;11497;52.222;21.246;2023-12-04T13:02:09;39.47;;;20.75;;
22660;SDS011;11497;52.222;21.246;2023-12-04T13:04:38;37.80;;;18.50;;
22660;SDS011;11497;52.222;21.246;2023-12-04T13:07:10;40.50;;;19.33;;
22660;SDS011;11497;52.222;21.246;2023-12-04T13:09:38;37.65;;;19.35;;
22660;SDS011;11497;52.222;21.246;2023-12-04T13:12:07;39.53;;;19.40;;
22660;SDS011;11497;52.222;21.246;2023-12-04T13:14:36;37.10;;;18.27;;
22660;SDS011;11497;52.222;21.246;2023-12-04T13:17:05;38.80;;;19.48;;
22660;SDS011;11497;52.222;21.246;2023-12-04T13:19:33;36.28;;;18.92;;
22660;SDS011;11497;52.222;21.246;2023-12-04T13:22:03;38.15;;;18.08;;
22660;SDS011;11497;52.222;21.246;2023-12-04T13:24:31;34.88;;;17.98;;
22660;SDS011;11497;52.222;21.246;2023-12-04T13:27:00;37.47;;;19.33;;
22660;SDS011;11497;52.222;21.246;2023-12-04T13:29:27;37.45;;;19.02;;
22660;SDS011;11497;52.222;21.246;2023-12-04T13:31:55;41.17;;;19.55;;
22660;SDS011;11497;52.222;21.246;2023-12-04T13:34:23;37.65;;;19.02;;
22660;SDS011;11497;52.222;21.246;2023-12-04T13:36:51;40.25;;;19.27;;
22660;SDS011;11497;52.222;21.246;2023-12-04T13:39:20;37.80;;;18.83;;
22660;SDS011;11497;52.222;21.246;2023-12-04T13:42:03;37.57;;;17.93;;
22660;SDS011;11497;52.222;21.246;2023-12-04T13:44:49;38.08;;;19.00;;
22660;SDS011;11497;52.222;21.246;2023-12-04T13:47:18;38.00;;;18.90;;
22660;SDS011;11497;52.222;21.246;2023-12-04T13:49:46;39.72;;;18.98;;
22660;SDS011;11497;52.222;21.246;2023-12-04T13:52:16;37.08;;;18.27;;
22660;SDS011;11497;52.222;21.246;2023-12-04T13:54:48;39.38;;;18.50;;
22660;SDS011;11497;52.222;21.246;2023-12-04T13:57:19;34.83;;;18.20;;
22660;SDS011;11497;52.222;21.246;2023-12-04T13:59:59;35.63;;;17.52;;
22660;SDS011;11497;52.222;21.246;2023-12-04T14:02:30;34.67;;;17.95;;
22660;SDS011;11497;52.222;21.246;2023-12-04T14:04:58;34.50;;;17.42;;
22660;SDS011;11497;52.222;21.246;2023-12-04T14:07:26;34.42;;;17.33;;
22660;SDS011;11497;52.222;21.246;2023-12-04T14:09:54;34.67;;;18.30;;
22660;SDS011;11497;52.222;21.246;2023-12-04T14:12:22;34.95;;;17.65;;
22660;SDS011;11497;52.222;21.246;2023-12-04T14:14:52;41.63;;;18.83;;
22660;SDS011;11497;52.222;21.246;2023-12-04T14:17:24;34.40;;;17.15;;
22660;SDS011;11497;52.222;21.246;2023-12-04T14:19:52;37.15;;;19.13;;
22660;SDS011;11497;52.222;21.246;2023-12-04T14:22:20;34.15;;;18.40;;
22660;SDS011;11497;52.222;21.246;2023-12-04T14:24:49;39.72;;;19.58;;
22660;SDS011;11497;52.222;21.246;2023-12-04T14:27:17;39.20;;;19.17;;